sensor_id;sensor_type;location;lat;lon;timestamp;temperature;humidity
21734;DHT22;11029;47.820;10.534;2023-05-07T00:01:23;10.40;75.80
21734;DHT22;11029;47.820;10.534;2023-05-07T00:03:49;10.30;76.50
21734;DHT22;11029;47.820;10.534;2023-05-07T00:06:16;10.30;76.70
21734;DHT22;11029;47.820;10.534;2023-05-07T00:08:43;10.30;75.90
21734;DHT22;11029;47.820;10.534;2023-05-07T00:11:10;10.10;76.70
21734;DHT22;11029;47.820;10.534;2023-05-07T00:13:37;10.20;76.90
21734;DHT22;11029;47.820;10.534;2023-05-07T00:16:04;10.20;76.70
21734;DHT22;11029;47.820;10.534;2023-05-07T00:18:31;10.20;76.40
21734;DHT22;11029;47.820;10.534;2023-05-07T00:20:58;10.30;75.50
21734;DHT22;11029;47.820;10.534;2023-05-07T00:23:24;10.30;74.90
21734;DHT22;11029;47.820;10.534;2023-05-07T00:25:51;10.30;74.60
21734;DHT22;11029;47.820;10.534;2023-05-07T00:28:18;10.30;75.50
21734;DHT22;11029;47.820;10.534;2023-05-07T00:30:44;10.20;76.10
21734;DHT22;11029;47.820;10.534;2023-05-07T00:33:11;10.20;76.70
21734;DHT22;11029;47.820;10.534;2023-05-07T00:35:38;10.20;76.90
21734;DHT22;11029;47.820;10.534;2023-05-07T00:38:05;10.30;76.50
21734;DHT22;11029;47.820;10.534;2023-05-07T00:40:31;10.30;76.30
21734;DHT22;11029;47.820;10.534;2023-05-07T00:42:58;10.40;76.00
21734;DHT22;11029;47.820;10.534;2023-05-07T00:45:27;10.40;76.10
21734;DHT22;11029;47.820;10.534;2023-05-07T00:47:58;10.50;75.90
21734;DHT22;11029;47.820;10.534;2023-05-07T00:50:26;10.40;76.50
21734;DHT22;11029;47.820;10.534;2023-05-07T00:52:54;10.40;76.50
21734;DHT22;11029;47.820;10.534;2023-05-07T00:55:22;10.50;76.40
21734;DHT22;11029;47.820;10.534;2023-05-07T00:57:50;10.40;76.40
21734;DHT22;11029;47.820;10.534;2023-05-07T01:00:17;10.30;77.00
21734;DHT22;11029;47.820;10.534;2023-05-07T01:02:44;10.40;76.90
21734;DHT22;11029;47.820;10.534;2023-05-07T01:05:14;10.40;77.20
21734;DHT22;11029;47.820;10.534;2023-05-07T01:07:42;10.30;77.80
21734;DHT22;11029;47.820;10.534;2023-05-07T01:10:09;10.40;78.00
21734;DHT22;11029;47.820;10.534;2023-05-07T01:12:38;10.40;76.90
21734;DHT22;11029;47.820;10.534;2023-05-07T01:15:08;10.30;76.80
21734;DHT22;11029;47.820;10.534;2023-05-07T01:17:36;10.40;76.30
21734;DHT22;11029;47.820;10.534;2023-05-07T01:20:06;10.30;75.70
21734;DHT22;11029;47.820;10.534;2023-05-07T01:22:35;10.40;76.00
21734;DHT22;11029;47.820;10.534;2023-05-07T01:25:07;10.30;75.40
21734;DHT22;11029;47.820;10.534;2023-05-07T01:27:37;10.20;76.20
21734;DHT22;11029;47.820;10.534;2023-05-07T01:30:04;10.20;76.60
21734;DHT22;11029;47.820;10.534;2023-05-07T01:32:44;10.10;77.00
21734;DHT22;11029;47.820;10.534;2023-05-07T01:35:18;10.10;77.70
21734;DHT22;11029;47.820;10.534;2023-05-07T01:37:47;10.00;78.50
21734;DHT22;11029;47.820;10.534;2023-05-07T01:40:14;10.10;78.20
21734;DHT22;11029;47.820;10.534;2023-05-07T01:42:43;10.20;77.90
21734;DHT22;11029;47.820;10.534;2023-05-07T01:45:10;10.20;77.40
21734;DHT22;11029;47.820;10.534;2023-05-07T01:47:37;10.30;76.90
21734;DHT22;11029;47.820;10.534;2023-05-07T01:50:06;10.20;76.90
21734;DHT22;11029;47.820;10.534;2023-05-07T01:52:37;10.20;76.60
21734;DHT22;11029;47.820;10.534;2023-05-07T01:55:05;10.10;76.90
21734;DHT22;11029;47.820;10.534;2023-05-07T01:57:32;10.10;76.80
21734;DHT22;11029;47.820;10.534;2023-05-07T01:59:59;10.00;77.00
21734;DHT22;11029;47.820;10.534;2023-05-07T02:02:26;10.00;77.10
21734;DHT22;11029;47.820;10.534;2023-05-07T02:04:56;10.10;76.30
21734;DHT22;11029;47.820;10.534;2023-05-07T02:07:24;10.00;76.70
21734;DHT22;11029;47.820;10.534;2023-05-07T02:09:51;10.00;77.00
21734;DHT22;11029;47.820;10.534;2023-05-07T02:12:18;10.00;76.70
21734;DHT22;11029;47.820;10.534;2023-05-07T02:14:46;10.00;76.20
21734;DHT22;11029;47.820;10.534;2023-05-07T02:17:16;10.00;76.50
21734;DHT22;11029;47.820;10.534;2023-05-07T02:19:45;10.00;76.20
21734;DHT22;11029;47.820;10.534;2023-05-07T02:22:12;9.90;77.00
21734;DHT22;11029;47.820;10.534;2023-05-07T02:24:38;9.70;77.20
21734;DHT22;11029;47.820;10.534;2023-05-07T02:27:05;9.70;77.30
21734;DHT22;11029;47.820;10.534;2023-05-07T02:29:32;9.70;77.50
21734;DHT22;11029;47.820;10.534;2023-05-07T02:31:59;9.80;77.30
21734;DHT22;11029;47.820;10.534;2023-05-07T02:34:26;9.90;76.50
21734;DHT22;11029;47.820;10.534;2023-05-07T02:36:52;9.90;76.10
21734;DHT22;11029;47.820;10.534;2023-05-07T02:39:22;9.90;76.10
21734;DHT22;11029;47.820;10.534;2023-05-07T02:41:49;9.70;77.40
21734;DHT22;11029;47.820;10.534;2023-05-07T02:44:16;9.70;77.50
21734;DHT22;11029;47.820;10.534;2023-05-07T02:46:46;9.60;77.50
21734;DHT22;11029;47.820;10.534;2023-05-07T02:49:12;9.70;77.40
21734;DHT22;11029;47.820;10.534;2023-05-07T02:51:39;9.70;76.40
21734;DHT22;11029;47.820;10.534;2023-05-07T02:54:11;9.60;76.70
21734;DHT22;11029;47.820;10.534;2023-05-07T02:56:38;9.60;76.20
21734;DHT22;11029;47.820;10.534;2023-05-07T02:59:04;9.50;77.80
21734;DHT22;11029;47.820;10.534;2023-05-07T03:01:36;9.40;79.30
21734;DHT22;11029;47.820;10.534;2023-05-07T03:04:05;9.40;78.70
21734;DHT22;11029;47.820;10.534;2023-05-07T03:06:32;9.40;78.60
21734;DHT22;11029;47.820;10.534;2023-05-07T03:08:59;9.40;78.20
21734;DHT22;11029;47.820;10.534;2023-05-07T03:11:26;9.30;78.60
21734;DHT22;11029;47.820;10.534;2023-05-07T03:13:53;9.40;78.20
21734;DHT22;11029;47.820;10.534;2023-05-07T03:16:21;9.40;77.20
21734;DHT22;11029;47.820;10.534;2023-05-07T03:18:48;9.40;77.10
21734;DHT22;11029;47.820;10.534;2023-05-07T03:21:14;9.40;76.80
21734;DHT22;11029;47.820;10.534;2023-05-07T03:23:41;9.40;77.10
21734;DHT22;11029;47.820;10.534;2023-05-07T03:26:08;9.50;77.00
21734;DHT22;11029;47.820;10.534;2023-05-07T03:28:35;9.40;77.80
21734;DHT22;11029;47.820;10.534;2023-05-07T03:31:04;9.40;78.30
21734;DHT22;11029;47.820;10.534;2023-05-07T03:33:38;9.40;77.90
21734;DHT22;11029;47.820;10.534;2023-05-07T03:36:05;9.40;77.90
21734;DHT22;11029;47.820;10.534;2023-05-07T03:38:32;9.40;77.70
21734;DHT22;11029;47.820;10.534;2023-05-07T03:40:59;9.40;77.60
21734;DHT22;11029;47.820;10.534;2023-05-07T03:43:26;9.40;76.70
21734;DHT22;11029;47.820;10.534;2023-05-07T03:46:00;9.40;77.10
21734;DHT22;11029;47.820;10.534;2023-05-07T03:48:28;9.20;76.70
21734;DHT22;11029;47.820;10.534;2023-05-07T03:51:00;9.10;77.00
21734;DHT22;11029;47.820;10.534;2023-05-07T03:53:31;9.20;77.20
21734;DHT22;11029;47.820;10.534;2023-05-07T03:55:57;9.20;77.40
21734;DHT22;11029;47.820;10.534;2023-05-07T03:58:24;9.20;77.30
21734;DHT22;11029;47.820;10.534;2023-05-07T04:00:53;9.30;77.00
21734;DHT22;11029;47.820;10.534;2023-05-07T04:03:26;9.40;76.00
21734;DHT22;11029;47.820;10.534;2023-05-07T04:05:56;9.30;75.60
21734;DHT22;11029;47.820;10.534;2023-05-07T04:08:23;9.20;76.20
21734;DHT22;11029;47.820;10.534;2023-05-07T04:10:56;9.20;76.10
21734;DHT22;11029;47.820;10.534;2023-05-07T04:13:26;9.10;76.50
21734;DHT22;11029;47.820;10.534;2023-05-07T04:15:55;9.00;76.60
21734;DHT22;11029;47.820;10.534;2023-05-07T04:18:24;9.00;76.90
21734;DHT22;11029;47.820;10.534;2023-05-07T04:20:51;9.00;76.60
21734;DHT22;11029;47.820;10.534;2023-05-07T04:23:18;9.00;77.20
21734;DHT22;11029;47.820;10.534;2023-05-07T04:25:45;9.00;76.70
21734;DHT22;11029;47.820;10.534;2023-05-07T04:28:30;9.00;77.70
21734;DHT22;11029;47.820;10.534;2023-05-07T04:30:57;9.00;77.30
21734;DHT22;11029;47.820;10.534;2023-05-07T04:33:24;9.10;77.60
21734;DHT22;11029;47.820;10.534;2023-05-07T04:35:52;9.10;77.70
21734;DHT22;11029;47.820;10.534;2023-05-07T04:38:18;9.10;77.70
21734;DHT22;11029;47.820;10.534;2023-05-07T04:40:48;9.10;77.80
21734;DHT22;11029;47.820;10.534;2023-05-07T04:43:19;9.20;77.00
21734;DHT22;11029;47.820;10.534;2023-05-07T04:45:52;9.20;76.90
21734;DHT22;11029;47.820;10.534;2023-05-07T04:48:21;9.20;76.40
21734;DHT22;11029;47.820;10.534;2023-05-07T04:50:50;9.30;76.20
21734;DHT22;11029;47.820;10.534;2023-05-07T04:53:20;9.20;76.40
21734;DHT22;11029;47.820;10.534;2023-05-07T04:55:49;9.30;77.00
21734;DHT22;11029;47.820;10.534;2023-05-07T04:58:21;9.40;76.30
21734;DHT22;11029;47.820;10.534;2023-05-07T05:00:47;9.50;76.80
21734;DHT22;11029;47.820;10.534;2023-05-07T05:03:14;9.60;76.50
21734;DHT22;11029;47.820;10.534;2023-05-07T05:05:41;9.60;77.10
21734;DHT22;11029;47.820;10.534;2023-05-07T05:08:08;9.80;76.40
21734;DHT22;11029;47.820;10.534;2023-05-07T05:10:38;9.90;76.70
21734;DHT22;11029;47.820;10.534;2023-05-07T05:13:05;10.00;76.60
21734;DHT22;11029;47.820;10.534;2023-05-07T05:15:32;10.10;76.60
21734;DHT22;11029;47.820;10.534;2023-05-07T05:18:01;10.20;76.90
21734;DHT22;11029;47.820;10.534;2023-05-07T05:20:29;10.40;76.90
21734;DHT22;11029;47.820;10.534;2023-05-07T05:22:56;10.50;75.60
21734;DHT22;11029;47.820;10.534;2023-05-07T05:25:23;10.60;75.20
21734;DHT22;11029;47.820;10.534;2023-05-07T05:27:50;10.70;75.70
21734;DHT22;11029;47.820;10.534;2023-05-07T05:30:17;10.90;75.40
21734;DHT22;11029;47.820;10.534;2023-05-07T05:32:46;11.10;74.90
21734;DHT22;11029;47.820;10.534;2023-05-07T05:35:13;11.20;74.70
21734;DHT22;11029;47.820;10.534;2023-05-07T05:37:41;11.30;74.40
21734;DHT22;11029;47.820;10.534;2023-05-07T05:40:08;11.40;74.70
21734;DHT22;11029;47.820;10.534;2023-05-07T05:42:36;11.50;74.30
21734;DHT22;11029;47.820;10.534;2023-05-07T05:45:03;11.60;74.50
21734;DHT22;11029;47.820;10.534;2023-05-07T05:47:32;11.80;74.10
21734;DHT22;11029;47.820;10.534;2023-05-07T05:49:59;12.10;73.60
21734;DHT22;11029;47.820;10.534;2023-05-07T05:52:27;12.30;73.10
21734;DHT22;11029;47.820;10.534;2023-05-07T05:54:55;12.50;72.60
21734;DHT22;11029;47.820;10.534;2023-05-07T05:57:22;12.70;72.60
21734;DHT22;11029;47.820;10.534;2023-05-07T05:59:49;12.70;72.20
21734;DHT22;11029;47.820;10.534;2023-05-07T06:02:16;12.80;72.80
21734;DHT22;11029;47.820;10.534;2023-05-07T06:04:43;12.90;72.30
21734;DHT22;11029;47.820;10.534;2023-05-07T06:07:15;13.00;72.60
21734;DHT22;11029;47.820;10.534;2023-05-07T06:09:42;13.10;72.30
21734;DHT22;11029;47.820;10.534;2023-05-07T06:12:08;13.20;72.40
21734;DHT22;11029;47.820;10.534;2023-05-07T06:14:36;13.00;73.00
21734;DHT22;11029;47.820;10.534;2023-05-07T06:17:03;13.10;73.50
21734;DHT22;11029;47.820;10.534;2023-05-07T06:19:30;13.40;73.00
21734;DHT22;11029;47.820;10.534;2023-05-07T06:21:58;13.60;72.30
21734;DHT22;11029;47.820;10.534;2023-05-07T06:24:29;13.80;71.90
21734;DHT22;11029;47.820;10.534;2023-05-07T06:26:56;13.90;71.20
21734;DHT22;11029;47.820;10.534;2023-05-07T06:29:26;14.00;70.80
21734;DHT22;11029;47.820;10.534;2023-05-07T06:31:53;14.10;71.30
21734;DHT22;11029;47.820;10.534;2023-05-07T06:34:21;14.30;70.80
21734;DHT22;11029;47.820;10.534;2023-05-07T06:36:48;14.30;71.00
21734;DHT22;11029;47.820;10.534;2023-05-07T06:39:25;14.30;70.80
21734;DHT22;11029;47.820;10.534;2023-05-07T06:41:51;13.80;72.90
21734;DHT22;11029;47.820;10.534;2023-05-07T06:44:29;14.00;72.60
21734;DHT22;11029;47.820;10.534;2023-05-07T06:47:06;13.80;73.70
21734;DHT22;11029;47.820;10.534;2023-05-07T06:49:34;13.90;73.80
21734;DHT22;11029;47.820;10.534;2023-05-07T06:52:01;13.90;74.20
21734;DHT22;11029;47.820;10.534;2023-05-07T06:54:28;14.20;73.70
21734;DHT22;11029;47.820;10.534;2023-05-07T06:56:55;14.60;72.90
21734;DHT22;11029;47.820;10.534;2023-05-07T06:59:24;14.90;71.50
21734;DHT22;11029;47.820;10.534;2023-05-07T07:01:51;14.90;70.80
21734;DHT22;11029;47.820;10.534;2023-05-07T07:04:18;14.80;71.10
21734;DHT22;11029;47.820;10.534;2023-05-07T07:06:54;15.00;71.00
21734;DHT22;11029;47.820;10.534;2023-05-07T07:09:20;15.20;69.60
21734;DHT22;11029;47.820;10.534;2023-05-07T07:11:50;15.40;69.50
21734;DHT22;11029;47.820;10.534;2023-05-07T07:14:17;15.60;68.00
21734;DHT22;11029;47.820;10.534;2023-05-07T07:16:47;15.80;67.80
21734;DHT22;11029;47.820;10.534;2023-05-07T07:19:16;16.10;66.90
21734;DHT22;11029;47.820;10.534;2023-05-07T07:21:45;16.40;66.30
21734;DHT22;11029;47.820;10.534;2023-05-07T07:24:13;16.60;65.30
21734;DHT22;11029;47.820;10.534;2023-05-07T07:26:45;16.60;64.60
21734;DHT22;11029;47.820;10.534;2023-05-07T07:29:12;16.80;64.20
21734;DHT22;11029;47.820;10.534;2023-05-07T07:31:41;16.80;64.10
21734;DHT22;11029;47.820;10.534;2023-05-07T07:34:08;16.90;63.70
21734;DHT22;11029;47.820;10.534;2023-05-07T07:36:35;16.90;63.80
21734;DHT22;11029;47.820;10.534;2023-05-07T07:39:14;17.10;63.70
21734;DHT22;11029;47.820;10.534;2023-05-07T07:41:41;17.30;62.80
21734;DHT22;11029;47.820;10.534;2023-05-07T07:44:08;17.50;62.50
21734;DHT22;11029;47.820;10.534;2023-05-07T07:46:41;17.60;62.80
21734;DHT22;11029;47.820;10.534;2023-05-07T07:49:08;17.50;61.80
21734;DHT22;11029;47.820;10.534;2023-05-07T07:51:35;17.70;62.00
21734;DHT22;11029;47.820;10.534;2023-05-07T07:54:02;17.80;61.60
21734;DHT22;11029;47.820;10.534;2023-05-07T07:56:32;18.00;61.10
21734;DHT22;11029;47.820;10.534;2023-05-07T07:59:01;18.20;60.70
21734;DHT22;11029;47.820;10.534;2023-05-07T08:01:30;18.30;60.90
21734;DHT22;11029;47.820;10.534;2023-05-07T08:03:57;18.30;59.60
21734;DHT22;11029;47.820;10.534;2023-05-07T08:06:26;18.30;59.10
21734;DHT22;11029;47.820;10.534;2023-05-07T08:08:53;18.30;59.70
21734;DHT22;11029;47.820;10.534;2023-05-07T08:11:21;18.50;59.20
21734;DHT22;11029;47.820;10.534;2023-05-07T08:13:48;18.60;59.00
21734;DHT22;11029;47.820;10.534;2023-05-07T08:16:15;18.70;58.20
21734;DHT22;11029;47.820;10.534;2023-05-07T08:18:42;18.90;57.10
21734;DHT22;11029;47.820;10.534;2023-05-07T08:21:09;18.90;57.90
21734;DHT22;11029;47.820;10.534;2023-05-07T08:23:35;18.90;57.70
21734;DHT22;11029;47.820;10.534;2023-05-07T08:26:03;19.00;57.40
21734;DHT22;11029;47.820;10.534;2023-05-07T08:28:30;19.00;57.10
21734;DHT22;11029;47.820;10.534;2023-05-07T08:30:57;19.10;58.00
21734;DHT22;11029;47.820;10.534;2023-05-07T08:33:29;19.20;57.70
21734;DHT22;11029;47.820;10.534;2023-05-07T08:35:56;19.30;57.10
21734;DHT22;11029;47.820;10.534;2023-05-07T08:38:23;19.20;57.30
21734;DHT22;11029;47.820;10.534;2023-05-07T08:40:49;19.30;56.30
21734;DHT22;11029;47.820;10.534;2023-05-07T08:43:19;19.20;57.30
21734;DHT22;11029;47.820;10.534;2023-05-07T08:45:47;19.40;57.20
21734;DHT22;11029;47.820;10.534;2023-05-07T08:48:17;19.50;56.70
21734;DHT22;11029;47.820;10.534;2023-05-07T08:50:52;19.50;57.10
21734;DHT22;11029;47.820;10.534;2023-05-07T08:53:20;19.30;56.40
21734;DHT22;11029;47.820;10.534;2023-05-07T08:55:48;19.30;56.80
21734;DHT22;11029;47.820;10.534;2023-05-07T08:58:15;19.40;56.80
21734;DHT22;11029;47.820;10.534;2023-05-07T09:00:42;19.60;56.90
21734;DHT22;11029;47.820;10.534;2023-05-07T09:03:10;19.80;56.20
21734;DHT22;11029;47.820;10.534;2023-05-07T09:05:43;20.10;54.90
21734;DHT22;11029;47.820;10.534;2023-05-07T09:08:15;20.10;54.30
21734;DHT22;11029;47.820;10.534;2023-05-07T09:10:44;20.10;54.40
21734;DHT22;11029;47.820;10.534;2023-05-07T09:13:11;20.20;54.10
21734;DHT22;11029;47.820;10.534;2023-05-07T09:15:41;20.30;55.10
21734;DHT22;11029;47.820;10.534;2023-05-07T09:18:08;20.40;53.80
21734;DHT22;11029;47.820;10.534;2023-05-07T09:20:38;19.60;54.90
21734;DHT22;11029;47.820;10.534;2023-05-07T09:23:08;19.50;55.50
21734;DHT22;11029;47.820;10.534;2023-05-07T09:25:36;19.80;55.50
21734;DHT22;11029;47.820;10.534;2023-05-07T09:28:13;19.30;52.70
21734;DHT22;11029;47.820;10.534;2023-05-07T09:30:40;19.20;52.80
21734;DHT22;11029;47.820;10.534;2023-05-07T09:33:09;19.40;52.40
21734;DHT22;11029;47.820;10.534;2023-05-07T09:35:40;19.70;52.60
21734;DHT22;11029;47.820;10.534;2023-05-07T09:38:12;20.00;53.50
21734;DHT22;11029;47.820;10.534;2023-05-07T09:40:39;20.20;52.90
21734;DHT22;11029;47.820;10.534;2023-05-07T09:43:13;20.40;49.90
21734;DHT22;11029;47.820;10.534;2023-05-07T09:45:50;20.10;46.40
21734;DHT22;11029;47.820;10.534;2023-05-07T09:48:20;19.70;48.70
21734;DHT22;11029;47.820;10.534;2023-05-07T09:50:51;19.80;50.40
21734;DHT22;11029;47.820;10.534;2023-05-07T09:53:23;20.20;50.80
21734;DHT22;11029;47.820;10.534;2023-05-07T09:55:51;20.40;50.10
21734;DHT22;11029;47.820;10.534;2023-05-07T09:58:20;20.50;50.00
21734;DHT22;11029;47.820;10.534;2023-05-07T10:00:50;20.50;49.80
21734;DHT22;11029;47.820;10.534;2023-05-07T10:03:19;20.80;50.20
21734;DHT22;11029;47.820;10.534;2023-05-07T10:06:00;21.00;51.40
21734;DHT22;11029;47.820;10.534;2023-05-07T10:08:28;21.20;50.70
21734;DHT22;11029;47.820;10.534;2023-05-07T10:10:59;21.20;49.90
21734;DHT22;11029;47.820;10.534;2023-05-07T10:13:28;21.20;50.10
21734;DHT22;11029;47.820;10.534;2023-05-07T10:15:58;21.40;50.10
21734;DHT22;11029;47.820;10.534;2023-05-07T10:18:32;21.40;49.40
21734;DHT22;11029;47.820;10.534;2023-05-07T10:21:17;21.30;50.60
21734;DHT22;11029;47.820;10.534;2023-05-07T10:23:51;21.40;50.10
21734;DHT22;11029;47.820;10.534;2023-05-07T10:26:21;21.50;50.10
21734;DHT22;11029;47.820;10.534;2023-05-07T10:28:52;21.50;49.50
21734;DHT22;11029;47.820;10.534;2023-05-07T10:31:31;21.40;47.80
21734;DHT22;11029;47.820;10.534;2023-05-07T10:34:03;21.20;48.40
21734;DHT22;11029;47.820;10.534;2023-05-07T10:36:34;21.40;50.00
21734;DHT22;11029;47.820;10.534;2023-05-07T10:39:06;21.60;48.30
21734;DHT22;11029;47.820;10.534;2023-05-07T10:41:33;21.70;48.30
21734;DHT22;11029;47.820;10.534;2023-05-07T10:44:01;21.60;47.10
21734;DHT22;11029;47.820;10.534;2023-05-07T10:46:32;21.70;46.90
21734;DHT22;11029;47.820;10.534;2023-05-07T10:49:16;21.80;47.10
21734;DHT22;11029;47.820;10.534;2023-05-07T10:52:14;21.80;48.60
21734;DHT22;11029;47.820;10.534;2023-05-07T10:58:23;21.60;48.50
21734;DHT22;11029;47.820;10.534;2023-05-07T11:04:24;21.00;49.30
21734;DHT22;11029;47.820;10.534;2023-05-07T11:15:11;21.60;49.00
21734;DHT22;11029;47.820;10.534;2023-05-07T11:17:58;22.00;49.30
21734;DHT22;11029;47.820;10.534;2023-05-07T11:26:20;22.20;49.10
21734;DHT22;11029;47.820;10.534;2023-05-07T11:28:48;22.00;49.40
21734;DHT22;11029;47.820;10.534;2023-05-07T11:31:21;22.00;49.10
21734;DHT22;11029;47.820;10.534;2023-05-07T11:33:48;22.10;49.50
21734;DHT22;11029;47.820;10.534;2023-05-07T11:36:18;22.20;49.60
21734;DHT22;11029;47.820;10.534;2023-05-07T11:38:48;22.20;48.80
21734;DHT22;11029;47.820;10.534;2023-05-07T11:41:15;22.30;49.40
21734;DHT22;11029;47.820;10.534;2023-05-07T11:44:03;22.30;49.20
21734;DHT22;11029;47.820;10.534;2023-05-07T11:46:30;22.10;49.10
21734;DHT22;11029;47.820;10.534;2023-05-07T11:48:57;22.10;48.70
21734;DHT22;11029;47.820;10.534;2023-05-07T11:51:25;22.10;48.40
21734;DHT22;11029;47.820;10.534;2023-05-07T11:53:53;21.70;49.00
21734;DHT22;11029;47.820;10.534;2023-05-07T11:56:20;21.30;50.90
21734;DHT22;11029;47.820;10.534;2023-05-07T11:58:47;21.10;53.50
21734;DHT22;11029;47.820;10.534;2023-05-07T12:01:15;21.20;52.40
21734;DHT22;11029;47.820;10.534;2023-05-07T12:03:44;21.30;51.30
21734;DHT22;11029;47.820;10.534;2023-05-07T12:06:16;21.30;51.00
21734;DHT22;11029;47.820;10.534;2023-05-07T12:08:44;21.30;50.60
21734;DHT22;11029;47.820;10.534;2023-05-07T12:11:16;21.30;51.30
21734;DHT22;11029;47.820;10.534;2023-05-07T12:13:44;21.30;51.30
21734;DHT22;11029;47.820;10.534;2023-05-07T12:16:11;21.30;51.80
21734;DHT22;11029;47.820;10.534;2023-05-07T12:18:39;21.30;51.10
21734;DHT22;11029;47.820;10.534;2023-05-07T12:21:06;21.20;51.60
21734;DHT22;11029;47.820;10.534;2023-05-07T12:23:35;21.10;51.80
21734;DHT22;11029;47.820;10.534;2023-05-07T12:26:03;21.00;51.80
21734;DHT22;11029;47.820;10.534;2023-05-07T12:28:37;21.00;51.70
21734;DHT22;11029;47.820;10.534;2023-05-07T12:31:05;21.10;52.40
21734;DHT22;11029;47.820;10.534;2023-05-07T12:33:33;21.00;52.50
21734;DHT22;11029;47.820;10.534;2023-05-07T12:36:04;20.90;52.50
21734;DHT22;11029;47.820;10.534;2023-05-07T12:38:36;20.90;52.50
21734;DHT22;11029;47.820;10.534;2023-05-07T12:41:03;20.90;52.80
21734;DHT22;11029;47.820;10.534;2023-05-07T12:43:30;20.70;52.80
21734;DHT22;11029;47.820;10.534;2023-05-07T12:46:00;20.70;53.20
21734;DHT22;11029;47.820;10.534;2023-05-07T12:48:27;20.50;52.60
21734;DHT22;11029;47.820;10.534;2023-05-07T12:50:56;20.60;53.70
21734;DHT22;11029;47.820;10.534;2023-05-07T12:53:24;20.60;56.10
21734;DHT22;11029;47.820;10.534;2023-05-07T12:55:56;20.60;56.10
21734;DHT22;11029;47.820;10.534;2023-05-07T12:58:26;20.50;56.90
21734;DHT22;11029;47.820;10.534;2023-05-07T13:00:55;20.40;57.50
21734;DHT22;11029;47.820;10.534;2023-05-07T13:03:37;20.30;57.20
21734;DHT22;11029;47.820;10.534;2023-05-07T13:06:09;20.30;56.80
21734;DHT22;11029;47.820;10.534;2023-05-07T13:08:41;20.30;55.60
21734;DHT22;11029;47.820;10.534;2023-05-07T13:11:11;20.30;53.90
21734;DHT22;11029;47.820;10.534;2023-05-07T13:13:39;20.30;54.20
21734;DHT22;11029;47.820;10.534;2023-05-07T13:16:08;20.20;54.00
21734;DHT22;11029;47.820;10.534;2023-05-07T13:18:36;20.10;53.40
21734;DHT22;11029;47.820;10.534;2023-05-07T13:21:03;20.10;53.80
21734;DHT22;11029;47.820;10.534;2023-05-07T13:23:30;20.00;54.70
21734;DHT22;11029;47.820;10.534;2023-05-07T13:25:57;20.00;57.20
21734;DHT22;11029;47.820;10.534;2023-05-07T13:28:24;19.80;56.30
21734;DHT22;11029;47.820;10.534;2023-05-07T13:30:52;19.90;58.00
21734;DHT22;11029;47.820;10.534;2023-05-07T13:33:19;19.80;59.10
21734;DHT22;11029;47.820;10.534;2023-05-07T13:35:46;19.20;61.60
21734;DHT22;11029;47.820;10.534;2023-05-07T13:38:13;18.80;63.60
21734;DHT22;11029;47.820;10.534;2023-05-07T13:40:42;18.50;67.40
21734;DHT22;11029;47.820;10.534;2023-05-07T13:43:09;18.30;65.30
21734;DHT22;11029;47.820;10.534;2023-05-07T13:45:35;18.00;63.90
21734;DHT22;11029;47.820;10.534;2023-05-07T13:48:02;17.70;64.50
21734;DHT22;11029;47.820;10.534;2023-05-07T13:50:29;17.70;64.30
21734;DHT22;11029;47.820;10.534;2023-05-07T13:52:56;17.80;65.40
21734;DHT22;11029;47.820;10.534;2023-05-07T13:55:24;18.00;66.50
21734;DHT22;11029;47.820;10.534;2023-05-07T13:57:58;18.40;67.40
21734;DHT22;11029;47.820;10.534;2023-05-07T14:00:26;18.70;67.70
21734;DHT22;11029;47.820;10.534;2023-05-07T14:02:54;18.90;66.60
21734;DHT22;11029;47.820;10.534;2023-05-07T14:05:21;19.10;66.90
21734;DHT22;11029;47.820;10.534;2023-05-07T14:07:51;19.40;67.30
21734;DHT22;11029;47.820;10.534;2023-05-07T14:10:19;19.70;67.40
21734;DHT22;11029;47.820;10.534;2023-05-07T14:12:46;19.90;67.00
21734;DHT22;11029;47.820;10.534;2023-05-07T14:15:15;20.30;66.40
21734;DHT22;11029;47.820;10.534;2023-05-07T14:17:43;20.70;64.40
21734;DHT22;11029;47.820;10.534;2023-05-07T14:20:10;21.00;62.30
21734;DHT22;11029;47.820;10.534;2023-05-07T14:22:37;21.40;61.20
21734;DHT22;11029;47.820;10.534;2023-05-07T14:25:05;21.60;60.80
21734;DHT22;11029;47.820;10.534;2023-05-07T14:27:33;22.10;59.70
21734;DHT22;11029;47.820;10.534;2023-05-07T14:29:59;22.30;58.50
21734;DHT22;11029;47.820;10.534;2023-05-07T14:32:26;22.50;57.20
21734;DHT22;11029;47.820;10.534;2023-05-07T14:34:53;22.60;55.50
21734;DHT22;11029;47.820;10.534;2023-05-07T14:37:19;22.90;53.40
21734;DHT22;11029;47.820;10.534;2023-05-07T14:39:46;23.00;53.90
21734;DHT22;11029;47.820;10.534;2023-05-07T14:42:17;23.40;53.70
21734;DHT22;11029;47.820;10.534;2023-05-07T14:44:44;23.40;51.70
21734;DHT22;11029;47.820;10.534;2023-05-07T14:47:12;23.50;50.60
21734;DHT22;11029;47.820;10.534;2023-05-07T14:49:39;23.80;48.10
21734;DHT22;11029;47.820;10.534;2023-05-07T14:52:07;24.10;47.10
21734;DHT22;11029;47.820;10.534;2023-05-07T14:54:36;24.30;47.00
21734;DHT22;11029;47.820;10.534;2023-05-07T14:57:05;24.40;46.90
21734;DHT22;11029;47.820;10.534;2023-05-07T14:59:32;24.00;45.90
21734;DHT22;11029;47.820;10.534;2023-05-07T15:01:59;23.60;45.40
21734;DHT22;11029;47.820;10.534;2023-05-07T15:04:26;22.90;47.70
21734;DHT22;11029;47.820;10.534;2023-05-07T15:06:52;22.40;49.20
21734;DHT22;11029;47.820;10.534;2023-05-07T15:09:20;22.00;47.20
21734;DHT22;11029;47.820;10.534;2023-05-07T15:11:47;21.80;47.10
21734;DHT22;11029;47.820;10.534;2023-05-07T15:14:14;21.50;46.90
21734;DHT22;11029;47.820;10.534;2023-05-07T15:16:41;21.20;47.50
21734;DHT22;11029;47.820;10.534;2023-05-07T15:19:10;21.10;48.10
21734;DHT22;11029;47.820;10.534;2023-05-07T15:21:37;21.00;47.90
21734;DHT22;11029;47.820;10.534;2023-05-07T15:24:03;20.90;47.90
21734;DHT22;11029;47.820;10.534;2023-05-07T15:26:30;20.80;47.90
21734;DHT22;11029;47.820;10.534;2023-05-07T15:28:57;20.80;47.90
21734;DHT22;11029;47.820;10.534;2023-05-07T15:31:25;20.80;48.40
21734;DHT22;11029;47.820;10.534;2023-05-07T15:33:52;20.80;49.20
21734;DHT22;11029;47.820;10.534;2023-05-07T15:36:20;20.90;49.10
21734;DHT22;11029;47.820;10.534;2023-05-07T15:38:46;21.00;48.40
21734;DHT22;11029;47.820;10.534;2023-05-07T15:41:13;21.00;48.30
21734;DHT22;11029;47.820;10.534;2023-05-07T15:43:46;21.10;48.10
21734;DHT22;11029;47.820;10.534;2023-05-07T15:46:17;21.00;48.50
21734;DHT22;11029;47.820;10.534;2023-05-07T15:48:44;20.90;48.20